Time;durP1;ratioP1;P1;durP2;ratioP2;P2;SDS_P1;SDS_P2;PMS_P1;PMS_P2;Temp;Humidity;BMP_temperature;BMP_pressure;BME280_temperature;BME280_humidity;BME280_pressure;Samples;Min_cycle;Max_cycle;Signal;HPM_P1;HPM_P2
2021/03/14 00:01:55;;;;;;;3.40;1.00;;;4.40;99.90;;;;;;4999634;28;20057;-85
2021/03/14 00:04:22;;;;;;;2.95;0.98;;;4.40;99.90;;;;;;5017731;28;20046;-85
2021/03/14 00:06:48;;;;;;;3.85;1.10;;;4.40;99.90;;;;;;5000005;28;20499;-85
2021/03/14 00:09:21;;;;;;;4.38;1.40;;;4.40;99.90;;;;;;5018296;28;20128;-85
2021/03/14 00:11:47;;;;;;;6.28;1.48;;;4.20;99.90;;;;;;5001039;28;20104;-85
2021/03/14 00:14:13;;;;;;;6.53;1.98;;;4.20;99.90;;;;;;5004028;28;20050;-85
2021/03/14 00:16:41;;;;;;;3.80;1.05;;;4.30;99.90;;;;;;5005514;28;20056;-85
2021/03/14 00:19:08;;;;;;;5.22;1.30;;;4.20;99.90;;;;;;5022870;28;20046;-85
2021/03/14 00:21:35;;;;;;;8.05;1.67;;;4.20;99.90;;;;;;5023213;28;20049;-85
2021/03/14 00:24:01;;;;;;;3.67;1.20;;;4.10;99.90;;;;;;5004827;28;20096;-85
2021/03/14 00:26:28;;;;;;;7.07;1.27;;;3.90;99.90;;;;;;5005617;28;20049;-85
2021/03/14 00:28:59;;;;;;;2.88;0.80;;;3.90;99.90;;;;;;5004883;28;20046;-85
2021/03/14 00:31:26;;;;;;;2.67;1.17;;;3.80;99.90;;;;;;5004956;28;20402;-86
2021/03/14 00:33:58;;;;;;;2.50;1.15;;;3.70;99.90;;;;;;5006489;28;20064;-86
2021/03/14 00:36:27;;;;;;;5.28;1.52;;;3.70;99.90;;;;;;5023453;28;20080;-85
2021/03/14 00:38:53;;;;;;;3.03;1.65;;;3.60;99.90;;;;;;5005710;28;20127;-86
2021/03/14 00:41:23;;;;;;;2.90;0.90;;;3.60;99.90;;;;;;5005244;28;20073;-86
2021/03/14 00:43:50;;;;;;;7.30;1.33;;;3.40;99.90;;;;;;5005533;28;20053;-86
2021/03/14 00:46:16;;;;;;;7.47;1.88;;;3.30;99.90;;;;;;5004986;28;20046;-86
2021/03/14 00:48:46;;;;;;;4.40;1.52;;;3.20;99.90;;;;;;5007744;28;20045;-86
2021/03/14 00:51:12;;;;;;;3.95;1.20;;;3.10;99.90;;;;;;5008949;28;20097;-86
2021/03/14 00:53:39;;;;;;;7.53;2.17;;;2.90;99.90;;;;;;5007834;28;20049;-85
2021/03/14 00:56:07;;;;;;;8.35;1.83;;;2.90;99.90;;;;;;5003698;28;20049;-85
2021/03/14 00:58:33;;;;;;;4.40;1.90;;;3.00;99.90;;;;;;5001771;28;20128;-86
2021/03/14 01:01:03;;;;;;;9.95;2.17;;;3.00;99.90;;;;;;5003996;28;20046;-85
2021/03/14 01:03:29;;;;;;;5.05;2.05;;;3.10;99.90;;;;;;5003123;28;20069;-85
2021/03/14 01:05:56;;;;;;;4.38;1.70;;;3.20;99.90;;;;;;5002079;28;20530;-85
2021/03/14 01:08:29;;;;;;;7.03;1.38;;;3.10;99.90;;;;;;5002733;28;20495;-85
2021/03/14 01:10:56;;;;;;;4.93;1.52;;;3.00;99.90;;;;;;5001915;28;20136;-85
2021/03/14 01:13:22;;;;;;;4.65;1.42;;;3.00;99.90;;;;;;5018906;28;20080;-85
2021/03/14 01:15:49;;;;;;;5.88;1.23;;;2.80;99.90;;;;;;5002703;28;20140;-85
2021/03/14 01:18:16;;;;;;;3.03;1.33;;;2.70;99.90;;;;;;5019301;28;20054;-85
2021/03/14 01:20:42;;;;;;;3.38;1.27;;;2.70;99.90;;;;;;5001787;28;20054;-85
2021/03/14 01:23:08;;;;;;;4.18;1.42;;;2.70;99.90;;;;;;5001412;28;20053;-85
2021/03/14 01:25:35;;;;;;;3.28;1.20;;;2.80;99.90;;;;;;5001499;28;20049;-85
2021/03/14 01:28:09;;;;;;;3.33;1.10;;;2.70;99.90;;;;;;5001292;28;20510;-85
2021/03/14 01:30:36;;;;;;;4.63;1.30;;;2.70;99.90;;;;;;5001176;28;20057;-85
2021/03/14 01:33:02;;;;;;;4.95;1.05;;;2.80;99.90;;;;;;4993465;28;20105;-85
2021/03/14 01:35:33;;;;;;;5.20;1.52;;;2.90;99.90;;;;;;4981815;28;20407;-85
2021/03/14 01:37:59;;;;;;;8.38;1.40;;;3.00;99.90;;;;;;4999459;28;20093;-84
2021/03/14 01:40:27;;;;;;;5.13;1.23;;;3.20;99.90;;;;;;4982318;28;20555;-85
2021/03/14 01:42:54;;;;;;;3.90;1.40;;;3.60;99.90;;;;;;4982925;28;20479;-85
2021/03/14 01:45:20;;;;;;;4.20;1.02;;;3.80;99.90;;;;;;4982911;28;20046;-86
2021/03/14 01:47:50;;;;;;;4.53;1.73;;;3.90;99.90;;;;;;5000462;28;20546;-85
2021/03/14 01:50:19;;;;;;;6.75;1.20;;;4.10;99.90;;;;;;4982291;28;20050;-85
2021/03/14 01:52:51;;;;;;;8.38;1.63;;;4.20;99.90;;;;;;4982775;28;20551;-85
2021/03/14 01:55:18;;;;;;;2.90;1.13;;;4.40;99.90;;;;;;4981798;28;20065;-85
2021/03/14 01:57:47;;;;;;;3.53;1.70;;;4.40;99.90;;;;;;4982148;28;20054;-85
2021/03/14 02:00:30;;;;;;;6.53;1.38;;;4.30;99.90;;;;;;4981676;28;20050;-85
2021/03/14 02:02:57;;;;;;;4.72;1.45;;;4.30;99.90;;;;;;4981625;28;20065;-85
2021/03/14 02:05:24;;;;;;;2.92;1.27;;;4.40;99.90;;;;;;4998451;28;20046;-85
2021/03/14 02:07:53;;;;;;;4.00;1.15;;;4.20;99.90;;;;;;4982233;28;20061;-85
2021/03/14 02:10:28;;;;;;;5.55;1.35;;;4.10;99.90;;;;;;4981256;28;20097;-85
2021/03/14 02:13:18;;;;;;;4.13;1.35;;;3.90;99.90;;;;;;4981575;28;20101;-85
2021/03/14 02:15:54;;;;;;;6.88;1.90;;;3.80;99.90;;;;;;4981913;28;20504;-85
2021/03/14 02:18:23;;;;;;;3.90;1.20;;;3.70;99.90;;;;;;4981804;28;20054;-85
2021/03/14 02:20:51;;;;;;;4.60;1.38;;;3.60;99.90;;;;;;4981405;28;20064;-85
2021/03/14 02:23:40;;;;;;;6.95;1.60;;;3.50;99.90;;;;;;4999155;28;20074;-85
2021/03/14 02:26:13;;;;;;;3.95;1.70;;;3.40;99.90;;;;;;4980746;28;20056;-85
2021/03/14 02:28:41;;;;;;;2.58;1.20;;;3.20;99.90;;;;;;4981350;28;20056;-85
2021/03/14 02:31:09;;;;;;;5.05;1.50;;;3.30;99.90;;;;;;4981415;28;20050;-85
2021/03/14 02:33:39;;;;;;;4.57;1.10;;;3.30;99.90;;;;;;4993089;28;20393;-85
2021/03/14 02:36:09;;;;;;;6.55;1.40;;;3.40;99.90;;;;;;5000637;28;20431;-85
2021/03/14 02:38:36;;;;;;;4.60;1.35;;;3.40;99.90;;;;;;5001400;28;20080;-85
2021/03/14 02:41:05;;;;;;;6.18;1.40;;;3.40;99.90;;;;;;5018707;28;20045;-85
2021/03/14 02:43:33;;;;;;;4.82;1.60;;;3.30;99.90;;;;;;5001624;28;20046;-85
2021/03/14 02:46:01;;;;;;;4.38;1.25;;;3.50;99.90;;;;;;5001070;28;20073;-85
2021/03/14 02:48:30;;;;;;;2.92;1.08;;;3.70;99.90;;;;;;5000824;28;20042;-85
2021/03/14 02:50:58;;;;;;;1.90;1.30;;;3.80;99.90;;;;;;5001568;28;20415;-85
2021/03/14 02:53:32;;;;;;;2.42;1.23;;;3.80;99.90;;;;;;5001711;28;20451;-85
2021/03/14 02:55:59;;;;;;;2.88;1.05;;;3.90;99.90;;;;;;5001310;28;20084;-85
2021/03/14 02:58:27;;;;;;;4.13;1.05;;;3.90;99.90;;;;;;5001462;28;20515;-85
2021/03/14 03:00:54;;;;;;;1.88;1.00;;;4.00;99.90;;;;;;5018747;28;20084;-85
2021/03/14 03:03:23;;;;;;;2.65;0.88;;;4.10;99.90;;;;;;5018902;28;20077;-85
2021/03/14 03:06:06;;;;;;;4.10;1.20;;;4.10;99.90;;;;;;5000936;28;20068;-85
2021/03/14 03:08:33;;;;;;;4.10;0.98;;;4.10;99.90;;;;;;5001367;28;20045;-85
2021/03/14 03:11:06;;;;;;;4.43;1.80;;;4.10;99.90;;;;;;5000941;28;20046;-85
2021/03/14 03:13:37;;;;;;;6.50;1.30;;;4.20;99.90;;;;;;5000831;28;20053;-85
2021/03/14 03:16:10;;;;;;;3.40;1.27;;;4.10;99.90;;;;;;5018798;28;20089;-85
2021/03/14 03:18:38;;;;;;;1.60;0.95;;;4.10;99.90;;;;;;5000987;28;20084;-85
2021/03/14 03:21:06;;;;;;;4.38;1.10;;;4.10;99.90;;;;;;5019089;28;20050;-85
2021/03/14 03:23:34;;;;;;;2.55;1.55;;;4.00;99.90;;;;;;5001211;28;20144;-85
2021/03/14 03:26:02;;;;;;;6.60;1.45;;;4.00;99.90;;;;;;5001556;28;20137;-85
2021/03/14 03:28:34;;;;;;;2.03;1.15;;;3.90;99.90;;;;;;5001753;28;20049;-85
2021/03/14 03:31:02;;;;;;;3.42;1.20;;;3.80;99.90;;;;;;5002877;28;20048;-85
2021/03/14 03:33:28;;;;;;;2.83;1.00;;;3.70;99.90;;;;;;5018981;28;20060;-85
2021/03/14 03:35:57;;;;;;;3.00;1.00;;;3.70;99.90;;;;;;5002279;28;20100;-85
2021/03/14 03:38:24;;;;;;;5.07;1.30;;;3.60;99.90;;;;;;5002552;28;20092;-85
2021/03/14 03:40:50;;;;;;;3.28;0.98;;;3.50;99.90;;;;;;5003064;28;20073;-85
2021/03/14 03:43:36;;;;;;;4.00;1.73;;;3.60;99.90;;;;;;5002601;28;20058;-85
2021/03/14 03:46:07;;;;;;;2.03;1.10;;;3.60;99.90;;;;;;5019086;28;20486;-85
2021/03/14 03:48:52;;;;;;;5.40;1.30;;;3.50;99.90;;;;;;5002639;28;20052;-85
2021/03/14 03:51:31;;;;;;;2.45;1.17;;;3.70;99.90;;;;;;5000630;28;20463;-84
2021/03/14 03:53:59;;;;;;;4.82;1.20;;;3.90;99.90;;;;;;5017290;28;20058;-85
2021/03/14 03:56:27;;;;;;;4.47;1.15;;;4.00;99.90;;;;;;5000673;28;20046;-85
2021/03/14 03:58:54;;;;;;;2.72;1.13;;;4.10;99.90;;;;;;5000144;28;20096;-85
2021/03/14 04:01:21;;;;;;;3.50;1.23;;;4.10;99.90;;;;;;5000558;28;20057;-84
2021/03/14 04:03:52;;;;;;;2.10;0.90;;;4.10;99.90;;;;;;5001833;28;20085;-84
2021/03/14 04:06:22;;;;;;;3.13;1.05;;;4.20;99.90;;;;;;5000801;28;20049;-85
2021/03/14 04:08:49;;;;;;;2.28;0.98;;;4.30;99.90;;;;;;5001170;28;20061;-85
2021/03/14 04:11:17;;;;;;;2.58;1.20;;;4.30;99.90;;;;;;5000876;28;20081;-85
2021/03/14 04:13:44;;;;;;;4.38;1.10;;;4.30;99.90;;;;;;5000541;28;20052;-85
2021/03/14 04:16:12;;;;;;;2.05;1.15;;;4.20;99.90;;;;;;5001105;28;20081;-85
2021/03/14 04:18:42;;;;;;;3.45;0.98;;;4.30;99.90;;;;;;5001293;28;20069;-85
2021/03/14 04:21:14;;;;;;;3.78;1.00;;;4.30;99.90;;;;;;5002143;28;20081;-85
2021/03/14 04:23:45;;;;;;;2.28;0.70;;;4.30;99.90;;;;;;5002090;28;20054;-85
2021/03/14 04:26:14;;;;;;;1.25;0.93;;;4.30;99.90;;;;;;5019315;28;20046;-85
2021/03/14 04:28:43;;;;;;;2.05;1.05;;;4.30;99.90;;;;;;5002184;28;20050;-85
2021/03/14 04:31:11;;;;;;;2.75;0.85;;;4.30;99.90;;;;;;5002139;28;20042;-85
2021/03/14 04:33:44;;;;;;;3.58;1.00;;;4.40;99.90;;;;;;5001752;28;20058;-85
2021/03/14 04:36:12;;;;;;;1.52;0.98;;;4.40;99.90;;;;;;5018894;28;20050;-85
2021/03/14 04:38:56;;;;;;;2.53;0.82;;;4.50;99.90;;;;;;5000670;28;20050;-85
2021/03/14 04:41:23;;;;;;;3.55;0.93;;;4.50;99.90;;;;;;5013188;28;20054;-85
2021/03/14 04:43:51;;;;;;;2.40;1.00;;;4.50;99.90;;;;;;5002553;28;20104;-85
2021/03/14 04:46:17;;;;;;;3.20;0.90;;;4.50;99.90;;;;;;5002882;28;20050;-85
2021/03/14 04:48:48;;;;;;;2.47;0.80;;;4.50;99.90;;;;;;5003955;28;20046;-86
2021/03/14 04:51:34;;;;;;;2.30;0.80;;;4.40;99.90;;;;;;5005397;28;20054;-86
2021/03/14 04:54:01;;;;;;;3.03;1.00;;;4.40;99.90;;;;;;5003864;28;20050;-86
2021/03/14 04:56:28;;;;;;;2.75;0.93;;;4.40;99.90;;;;;;5003717;28;20080;-86
2021/03/14 04:58:56;;;;;;;1.77;0.82;;;4.40;99.90;;;;;;5005213;28;20073;-86
2021/03/14 05:01:24;;;;;;;2.00;0.70;;;4.40;99.90;;;;;;5025792;28;20046;-86
2021/03/14 05:03:58;;;;;;;3.47;1.13;;;4.50;99.90;;;;;;5011727;28;20049;-86
2021/03/14 05:06:25;;;;;;;1.63;0.95;;;4.40;99.90;;;;;;5007398;28;20054;-85
2021/03/14 05:08:53;;;;;;;4.20;1.10;;;4.40;99.90;;;;;;5004052;28;20054;-85
2021/03/14 05:11:21;;;;;;;2.15;1.48;;;4.30;99.90;;;;;;5001080;28;20488;-83
2021/03/14 05:13:48;;;;;;;2.25;0.95;;;4.30;99.90;;;;;;5000801;28;20513;-84
2021/03/14 05:16:17;;;;;;;1.38;0.98;;;4.40;99.90;;;;;;5001074;28;20054;-84
2021/03/14 05:18:44;;;;;;;2.50;0.90;;;4.40;99.90;;;;;;5000925;28;20112;-84
2021/03/14 05:21:14;;;;;;;1.77;0.90;;;4.40;99.90;;;;;;5000748;28;20054;-84
2021/03/14 05:23:41;;;;;;;0.90;0.80;;;4.40;99.90;;;;;;5000995;28;20128;-84
2021/03/14 05:26:13;;;;;;;3.05;0.80;;;4.30;99.90;;;;;;5000013;28;20045;-84
2021/03/14 05:28:48;;;;;;;2.00;1.25;;;4.20;99.90;;;;;;5001291;28;20046;-85
2021/03/14 05:31:32;;;;;;;3.83;0.82;;;4.20;99.90;;;;;;5000948;28;20041;-84
2021/03/14 05:34:01;;;;;;;2.67;1.05;;;4.10;99.90;;;;;;4986594;28;20412;-84
2021/03/14 05:36:35;;;;;;;1.33;0.73;;;4.00;99.90;;;;;;4982005;28;20085;-84
2021/03/14 05:39:04;;;;;;;1.85;1.17;;;4.00;99.90;;;;;;4981933;28;20074;-84
2021/03/14 05:41:32;;;;;;;1.00;0.90;;;4.00;99.90;;;;;;4981410;28;20047;-84
2021/03/14 05:44:00;;;;;;;4.18;1.20;;;4.00;99.90;;;;;;4981749;28;20057;-84
2021/03/14 05:46:26;;;;;;;3.08;0.93;;;4.00;99.90;;;;;;4982353;28;20519;-84
2021/03/14 05:48:53;;;;;;;4.18;1.20;;;4.00;99.90;;;;;;4981365;28;20058;-84
2021/03/14 05:51:26;;;;;;;1.00;0.75;;;3.90;99.90;;;;;;4982127;28;20058;-85
2021/03/14 05:53:55;;;;;;;7.38;1.45;;;3.80;99.90;;;;;;4982012;28;20093;-85
2021/03/14 05:56:22;;;;;;;1.17;1.05;;;3.80;99.90;;;;;;4981666;28;20110;-85
2021/03/14 05:58:53;;;;;;;2.85;1.20;;;3.80;99.90;;;;;;4981793;28;20453;-85
2021/03/14 06:01:25;;;;;;;2.67;0.90;;;3.90;99.90;;;;;;4981721;28;20054;-84
2021/03/14 06:03:57;;;;;;;2.17;1.00;;;4.00;99.90;;;;;;4981339;28;20420;-84
2021/03/14 06:06:24;;;;;;;5.10;1.65;;;4.10;99.90;;;;;;4981719;28;20042;-84
2021/03/14 06:08:55;;;;;;;2.30;0.93;;;4.20;99.90;;;;;;4982891;28;20073;-84
2021/03/14 06:11:22;;;;;;;3.22;1.17;;;4.30;99.90;;;;;;4982406;28;20105;-84
2021/03/14 06:13:50;;;;;;;3.80;1.08;;;4.40;99.90;;;;;;4983671;28;20114;-84
2021/03/14 06:16:16;;;;;;;2.15;1.02;;;4.40;99.90;;;;;;4982639;28;20077;-85
2021/03/14 06:18:43;;;;;;;1.10;1.00;;;4.50;99.90;;;;;;4982460;28;20050;-85
2021/03/14 06:21:23;;;;;;;2.97;1.10;;;4.50;99.90;;;;;;4982902;28;20054;-84
2021/03/14 06:24:09;;;;;;;6.55;1.73;;;4.50;99.90;;;;;;5001877;28;20058;-84
2021/03/14 06:26:50;;;;;;;2.15;1.00;;;4.60;99.90;;;;;;4980653;28;20101;-84
2021/03/14 06:29:19;;;;;;;1.45;1.15;;;4.60;99.90;;;;;;4998219;28;20042;-84
2021/03/14 06:31:59;;;;;;;1.15;1.05;;;4.70;99.90;;;;;;4981054;28;20053;-84
2021/03/14 06:34:41;;;;;;;2.42;0.93;;;4.60;99.90;;;;;;4997583;28;20060;-85
2021/03/14 06:37:07;;;;;;;2.45;1.10;;;4.60;99.90;;;;;;5000017;28;20500;-85
2021/03/14 06:39:36;;;;;;;5.85;1.00;;;4.70;99.90;;;;;;4999537;28;20073;-84
2021/03/14 06:42:03;;;;;;;3.80;1.38;;;4.80;99.90;;;;;;5000735;28;20080;-84
2021/03/14 06:44:44;;;;;;;2.20;1.08;;;4.70;99.90;;;;;;5001957;28;20050;-85
2021/03/14 06:47:12;;;;;;;1.27;1.15;;;4.80;99.90;;;;;;4999592;28;20046;-84
2021/03/14 06:49:41;;;;;;;3.30;1.10;;;4.90;99.90;;;;;;5000031;28;20088;-85
2021/03/14 06:52:08;;;;;;;4.97;1.00;;;4.90;99.90;;;;;;5000749;28;20136;-85
2021/03/14 06:54:39;;;;;;;3.67;1.00;;;5.00;99.90;;;;;;5000115;28;20124;-84
2021/03/14 06:57:20;;;;;;;1.80;0.90;;;5.10;99.90;;;;;;4999973;28;20053;-84
2021/03/14 06:59:59;;;;;;;2.35;1.00;;;5.20;99.90;;;;;;4999689;28;20511;-85
2021/03/14 07:02:29;;;;;;;2.47;0.90;;;5.40;99.90;;;;;;5000209;28;20118;-85
2021/03/14 07:04:57;;;;;;;1.63;0.90;;;5.50;99.90;;;;;;5000078;28;20103;-84
2021/03/14 07:07:32;;;;;;;2.08;0.90;;;5.60;99.90;;;;;;4999321;28;20049;-85
2021/03/14 07:10:04;;;;;;;6.47;1.70;;;5.70;99.90;;;;;;4999596;28;20069;-84
2021/03/14 07:12:35;;;;;;;3.95;1.45;;;5.60;99.90;;;;;;4999600;28;20129;-85
2021/03/14 07:15:20;;;;;;;4.50;1.48;;;5.60;99.90;;;;;;5017246;28;20054;-85
2021/03/14 07:17:57;;;;;;;4.03;1.30;;;5.70;99.90;;;;;;5000202;28;20487;-85
2021/03/14 07:20:26;;;;;;;4.07;1.02;;;5.60;99.90;;;;;;4999772;28;20113;-85
2021/03/14 07:23:07;;;;;;;2.08;1.13;;;5.60;99.90;;;;;;4999847;28;20531;-84
2021/03/14 07:25:45;;;;;;;1.75;0.90;;;5.60;99.90;;;;;;4999480;28;20049;-85
2021/03/14 07:28:12;;;;;;;5.10;1.17;;;5.50;99.90;;;;;;4999790;28;20492;-84
2021/03/14 07:30:39;;;;;;;7.07;1.50;;;5.50;99.90;;;;;;5017863;28;20073;-85
2021/03/14 07:33:06;;;;;;;3.90;1.30;;;5.50;99.90;;;;;;5000345;28;20049;-85
2021/03/14 07:35:32;;;;;;;6.03;1.48;;;5.50;99.90;;;;;;5000426;28;20054;-85
2021/03/14 07:38:02;;;;;;;3.38;1.38;;;5.50;99.90;;;;;;5001111;28;20053;-84
2021/03/14 07:40:30;;;;;;;2.00;1.10;;;5.40;99.90;;;;;;5005311;28;20049;-84
2021/03/14 07:43:00;;;;;;;4.05;1.40;;;5.30;99.90;;;;;;5000903;28;20511;-85
2021/03/14 07:45:29;;;;;;;2.30;1.50;;;5.20;99.90;;;;;;5001420;28;20053;-84
2021/03/14 07:48:02;;;;;;;3.40;1.30;;;5.30;99.90;;;;;;5017271;28;20491;-84
2021/03/14 07:50:35;;;;;;;3.55;1.20;;;5.30;99.90;;;;;;4999653;28;20054;-84
2021/03/14 07:53:07;;;;;;;5.22;1.38;;;5.30;99.90;;;;;;4999722;28;20042;-84
2021/03/14 07:55:36;;;;;;;2.92;1.25;;;5.30;99.90;;;;;;5000111;28;20454;-84
2021/03/14 07:58:03;;;;;;;2.90;1.00;;;5.30;99.90;;;;;;4999853;28;20136;-84
2021/03/14 08:01:14;;;;;;;1.98;1.30;;;5.30;99.90;;;;;;4999608;28;20046;-84
2021/03/14 08:03:41;;;;;;;6.90;1.30;;;5.20;99.90;;;;;;4998538;28;20058;-85
2021/03/14 08:06:11;;;;;;;2.38;1.00;;;5.20;99.90;;;;;;5001410;28;20100;-85
2021/03/14 08:08:38;;;;;;;3.13;1.23;;;5.30;99.90;;;;;;5000713;28;20046;-84
2021/03/14 08:11:22;;;;;;;2.92;1.35;;;5.40;99.90;;;;;;5001165;28;20045;-85
2021/03/14 08:13:48;;;;;;;;;;;5.60;99.90;;;;;;5000264;28;20069;-85
2021/03/14 08:16:15;;;;;;;6.88;1.30;;;5.60;99.90;;;;;;5000479;28;19973;-85
2021/03/14 08:18:46;;;;;;;2.30;1.10;;;5.70;99.90;;;;;;5000759;28;20077;-84
2021/03/14 08:21:21;;;;;;;2.63;1.10;;;5.80;99.90;;;;;;5018443;28;20423;-85
2021/03/14 08:24:08;;;;;;;2.65;1.42;;;6.00;99.90;;;;;;5018208;28;20050;-85
2021/03/14 08:26:40;;;;;;;2.65;1.55;;;6.30;99.90;;;;;;5001886;28;20412;-85
2021/03/14 08:29:13;;;;;;;4.35;1.30;;;6.40;99.90;;;;;;5000658;28;20078;-85
2021/03/14 08:31:52;;;;;;;3.10;1.25;;;6.50;99.90;;;;;;5002461;28;20050;-85
2021/03/14 08:34:26;;;;;;;3.85;1.35;;;6.80;99.90;;;;;;5002266;28;20050;-84
2021/03/14 08:36:53;;;;;;;1.38;1.20;;;7.00;99.90;;;;;;5004165;28;20482;-84
2021/03/14 08:39:24;;;;;;;3.28;1.58;;;7.00;99.90;;;;;;5005314;28;20467;-85
2021/03/14 08:41:55;;;;;;;3.15;1.40;;;7.20;99.90;;;;;;5004022;28;20069;-85
2021/03/14 08:44:46;;;;;;;4.18;1.30;;;8.60;99.90;;;;;;5004652;28;20046;-84
2021/03/14 08:47:14;;;;;;;2.47;1.10;;;10.20;99.90;;;;;;5003707;28;20104;-85
2021/03/14 08:49:49;;;;;;;1.98;1.13;;;11.60;97.90;;;;;;5004318;28;20483;-85
2021/03/14 08:52:21;;;;;;;1.80;1.00;;;11.20;90.30;;;;;;5006052;28;20081;-85
2021/03/14 08:54:54;;;;;;;2.97;0.93;;;10.70;92.20;;;;;;5022470;28;20507;-84
2021/03/14 08:57:22;;;;;;;3.45;1.30;;;10.90;90.90;;;;;;5006518;28;20136;-85
2021/03/14 08:59:54;;;;;;;2.75;0.88;;;11.10;90.50;;;;;;5005631;28;20499;-84
2021/03/14 09:02:26;;;;;;;4.00;1.13;;;12.00;87.00;;;;;;5005883;28;20060;-86
2021/03/14 09:04:54;;;;;;;2.78;1.02;;;12.50;77.60;;;;;;5006128;28;20674;-85
2021/03/14 09:07:20;;;;;;;1.77;0.77;;;12.90;73.40;;;;;;5024072;28;20053;-85
2021/03/14 09:09:47;;;;;;;2.88;0.90;;;12.00;73.50;;;;;;5007035;28;20057;-85
2021/03/14 09:12:17;;;;;;;2.53;1.00;;;11.30;79.30;;;;;;5008283;28;20460;-85
2021/03/14 09:14:48;;;;;;;3.00;1.00;;;11.40;85.90;;;;;;5006353;28;20056;-85
2021/03/14 09:17:20;;;;;;;2.20;1.13;;;10.80;84.10;;;;;;5003322;28;20487;-84
2021/03/14 09:19:54;;;;;;;2.72;1.25;;;10.20;88.70;;;;;;5000926;28;20060;-85
2021/03/14 09:22:26;;;;;;;3.78;1.50;;;9.80;91.10;;;;;;5001456;28;20042;-83
2021/03/14 09:25:06;;;;;;;1.58;1.00;;;9.80;93.30;;;;;;5005266;28;20522;-86
2021/03/14 09:27:52;;;;;;;3.13;1.27;;;9.40;93.60;;;;;;5003346;28;20045;-86
2021/03/14 09:30:19;;;;;;;2.35;1.02;;;8.90;95.20;;;;;;5002816;28;20084;-86
2021/03/14 09:32:50;;;;;;;3.65;1.10;;;8.60;99.00;;;;;;5003289;28;20052;-85
2021/03/14 09:35:22;;;;;;;2.15;1.33;;;8.10;99.90;;;;;;5003930;28;20061;-86
2021/03/14 09:37:58;;;;;;;5.68;1.10;;;8.10;99.90;;;;;;5002925;28;20436;-85
2021/03/14 09:40:30;;;;;;;3.30;1.00;;;8.00;99.90;;;;;;5003980;28;20115;-84
2021/03/14 09:43:24;;;;;;;2.33;1.25;;;7.70;99.90;;;;;;5003151;28;20054;-85
2021/03/14 09:46:00;;;;;;;2.80;0.97;;;7.60;99.90;;;;;;5004041;28;20050;-86
2021/03/14 09:48:28;;;;;;;1.85;0.98;;;7.70;99.90;;;;;;5003880;28;20213;-86
2021/03/14 09:51:06;;;;;;;1.80;0.90;;;7.90;99.90;;;;;;5003555;28;20050;-86
2021/03/14 09:53:38;;;;;;;3.42;1.00;;;8.10;99.90;;;;;;5004061;28;20081;-85
2021/03/14 09:56:07;;;;;;;2.20;1.02;;;8.20;99.90;;;;;;5020877;28;20073;-86
2021/03/14 09:58:33;;;;;;;1.95;1.00;;;8.30;99.90;;;;;;5003867;28;20081;-86
2021/03/14 10:01:03;;;;;;;3.92;1.05;;;8.30;99.90;;;;;;5004459;28;20056;-86
2021/03/14 10:03:32;;;;;;;1.98;1.10;;;8.20;99.90;;;;;;5004503;28;20499;-85
2021/03/14 10:06:00;;;;;;;1.17;0.80;;;8.30;99.90;;;;;;5004263;28;20042;-85
2021/03/14 10:08:27;;;;;;;1.85;1.00;;;8.30;99.90;;;;;;5002020;28;20070;-85
2021/03/14 10:10:59;;;;;;;2.83;0.80;;;8.20;99.90;;;;;;5004454;28;20446;-84
2021/03/14 10:13:28;;;;;;;2.60;1.17;;;8.10;99.90;;;;;;5023255;28;20105;-85
2021/03/14 10:15:56;;;;;;;1.77;0.90;;;8.00;99.90;;;;;;5003558;28;20056;-86
2021/03/14 10:18:24;;;;;;;4.25;1.45;;;8.00;99.90;;;;;;5003790;28;20114;-85
2021/03/14 10:21:11;;;;;;;9.13;1.58;;;7.90;99.90;;;;;;5004280;28;20104;-85
2021/03/14 10:23:38;;;;;;;1.88;0.93;;;7.80;99.90;;;;;;5020916;28;20107;-87
2021/03/14 10:26:13;;;;;;;1.98;0.80;;;7.80;99.90;;;;;;5004104;28;20042;-86
2021/03/14 10:28:40;;;;;;;1.42;0.82;;;7.90;99.90;;;;;;5004243;28;20420;-85
2021/03/14 10:31:08;;;;;;;3.72;1.17;;;8.30;99.90;;;;;;5004052;28;20085;-85
2021/03/14 10:33:43;;;;;;;3.10;0.98;;;8.80;99.90;;;;;;5003962;28;20080;-85
2021/03/14 10:36:16;;;;;;;1.23;0.85;;;9.40;99.90;;;;;;5004413;28;20466;-86
2021/03/14 10:38:55;;;;;;;1.80;1.13;;;10.10;98.90;;;;;;5021088;28;20113;-87
2021/03/14 10:41:23;;;;;;;2.47;1.10;;;10.60;93.90;;;;;;5003462;28;20053;-86
2021/03/14 10:43:55;;;;;;;4.70;1.00;;;10.60;93.70;;;;;;5003784;28;20050;-85
2021/03/14 10:46:37;;;;;;;4.13;0.98;;;10.50;90.90;;;;;;5002769;28;20141;-86
2021/03/14 10:49:24;;;;;;;1.80;0.85;;;10.40;91.10;;;;;;5003698;28;20046;-85
2021/03/14 10:51:59;;;;;;;2.45;1.00;;;10.10;92.80;;;;;;5002745;28;20149;-86
2021/03/14 10:54:33;;;;;;;2.67;1.35;;;9.90;92.50;;;;;;5004089;28;20073;-86
2021/03/14 10:57:00;;;;;;;2.75;1.00;;;9.50;93.40;;;;;;5019935;28;20054;-86
2021/03/14 10:59:33;;;;;;;2.63;1.15;;;9.20;94.60;;;;;;5002763;28;20053;-86
2021/03/14 11:02:21;;;;;;;3.22;1.77;;;8.90;97.10;;;;;;5003247;28;20054;-85
2021/03/14 11:04:58;;;;;;;3.65;1.25;;;8.50;99.90;;;;;;5002234;28;20057;-84
2021/03/14 11:07:32;;;;;;;2.20;1.05;;;8.20;99.90;;;;;;5020638;28;20108;-85
2021/03/14 11:10:13;;;;;;;2.85;1.20;;;7.90;99.90;;;;;;5020984;28;20053;-85
2021/03/14 11:12:41;;;;;;;3.75;1.05;;;7.70;99.90;;;;;;5003677;28;20058;-85
2021/03/14 11:15:32;;;;;;;3.28;1.20;;;7.60;99.90;;;;;;5001431;28;20057;-85
2021/03/14 11:18:02;;;;;;;2.88;1.10;;;7.90;99.90;;;;;;5003575;28;20088;-86
2021/03/14 11:20:32;;;;;;;2.03;0.80;;;8.40;99.90;;;;;;5003906;28;20050;-86
2021/03/14 11:23:00;;;;;;;1.75;1.10;;;8.90;99.90;;;;;;5003439;28;20088;-86
2021/03/14 11:25:28;;;;;;;3.63;1.17;;;9.30;99.90;;;;;;5004019;28;20042;-85
2021/03/14 11:27:58;;;;;;;3.22;1.42;;;9.60;99.50;;;;;;5022698;28;20050;-84
2021/03/14 11:30:26;;;;;;;4.20;1.13;;;9.30;99.00;;;;;;5004962;28;20119;-85
2021/03/14 11:32:53;;;;;;;2.88;1.30;;;8.90;99.90;;;;;;5002844;28;20092;-85
2021/03/14 11:35:20;;;;;;;2.13;0.98;;;8.50;99.90;;;;;;5002472;28;20057;-84
2021/03/14 11:37:46;;;;;;;1.83;1.15;;;8.50;99.90;;;;;;5002915;28;20053;-84
2021/03/14 11:40:13;;;;;;;4.47;1.17;;;8.50;99.90;;;;;;5003264;28;20064;-85
2021/03/14 11:42:39;;;;;;;2.63;1.38;;;8.60;99.90;;;;;;5002138;28;20487;-86
2021/03/14 11:45:07;;;;;;;2.65;1.20;;;8.70;99.90;;;;;;5019929;28;20077;-86
2021/03/14 11:47:34;;;;;;;4.05;1.30;;;8.70;99.90;;;;;;5003556;28;20109;-85
2021/03/14 11:50:02;;;;;;;5.75;1.17;;;8.60;99.90;;;;;;5003190;28;20065;-85
2021/03/14 11:52:29;;;;;;;3.47;1.30;;;8.40;99.90;;;;;;5003455;28;20078;-86
2021/03/14 11:54:55;;;;;;;3.08;1.33;;;8.40;99.90;;;;;;5020623;28;20050;-86
2021/03/14 11:57:22;;;;;;;3.30;1.90;;;8.50;99.90;;;;;;5002982;28;20056;-85
2021/03/14 11:59:49;;;;;;;4.32;1.80;;;8.40;99.90;;;;;;5001789;28;20116;-85
2021/03/14 12:02:15;;;;;;;5.45;1.10;;;8.30;99.90;;;;;;5002266;28;20506;-86
2021/03/14 12:04:42;;;;;;;5.03;1.80;;;7.90;99.90;;;;;;5002107;28;20048;-86
2021/03/14 12:07:08;;;;;;;3.92;1.58;;;7.70;99.90;;;;;;5001798;28;20140;-85
2021/03/14 12:09:35;;;;;;;1.17;1.08;;;7.50;99.90;;;;;;5003581;28;20557;-85
2021/03/14 12:12:04;;;;;;;6.32;1.30;;;7.40;99.90;;;;;;5006102;28;20045;-85
2021/03/14 12:14:31;;;;;;;3.38;1.40;;;7.50;99.90;;;;;;5006740;28;20519;-85
2021/03/14 12:16:58;;;;;;;1.92;1.35;;;7.70;99.90;;;;;;5007058;28;20050;-87
2021/03/14 12:19:25;;;;;;;4.85;1.60;;;8.10;99.90;;;;;;5006680;28;20057;-85
2021/03/14 12:21:52;;;;;;;6.70;2.28;;;8.40;99.90;;;;;;5007443;28;20057;-86
2021/03/14 12:24:18;;;;;;;3.00;1.42;;;8.90;99.90;;;;;;5007235;28;20104;-85
2021/03/14 12:26:45;;;;;;;4.05;1.40;;;9.00;99.90;;;;;;5006529;28;20488;-85
2021/03/14 12:29:12;;;;;;;4.72;1.40;;;9.00;99.90;;;;;;5005793;28;20046;-85
2021/03/14 12:31:38;;;;;;;3.60;1.50;;;9.20;99.90;;;;;;5005534;28;20046;-85
2021/03/14 12:34:05;;;;;;;2.63;1.02;;;9.00;99.90;;;;;;4991787;28;20056;-85
2021/03/14 12:36:32;;;;;;;5.30;1.20;;;9.00;99.90;;;;;;4987021;28;20050;-85
2021/03/14 12:38:58;;;;;;;2.10;1.17;;;9.20;99.90;;;;;;4987159;28;20420;-86
2021/03/14 12:41:32;;;;;;;3.53;0.95;;;9.40;99.90;;;;;;4985485;28;20050;-84
2021/03/14 12:43:59;;;;;;;4.35;1.27;;;9.50;99.90;;;;;;4985576;28;20104;-85
2021/03/14 12:46:29;;;;;;;3.97;1.35;;;9.60;99.50;;;;;;4985144;28;20051;-85
2021/03/14 12:48:55;;;;;;;4.82;1.35;;;9.60;98.50;;;;;;5003283;28;20073;-86
2021/03/14 12:51:30;;;;;;;4.45;1.15;;;9.50;96.90;;;;;;5002962;28;20046;-84
2021/03/14 12:53:56;;;;;;;2.20;0.90;;;9.40;95.50;;;;;;4981422;28;20053;-85
2021/03/14 12:56:24;;;;;;;2.45;0.95;;;9.30;97.20;;;;;;5003211;28;20058;-85
2021/03/14 12:58:52;;;;;;;3.95;1.10;;;9.40;98.20;;;;;;4984721;28;20069;-86
2021/03/14 13:01:34;;;;;;;3.20;1.20;;;9.10;97.30;;;;;;4984368;28;20100;-85
2021/03/14 13:04:00;;;;;;;5.32;1.50;;;9.00;98.60;;;;;;4977951;28;20046;-85
2021/03/14 13:06:30;;;;;;;4.03;1.05;;;9.10;98.20;;;;;;4984673;28;20046;-85
2021/03/14 13:08:57;;;;;;;2.60;1.25;;;9.00;96.60;;;;;;4986011;28;20046;-85
2021/03/14 13:11:26;;;;;;;3.38;1.42;;;8.70;98.40;;;;;;4986589;28;20062;-85
2021/03/14 13:13:52;;;;;;;3.03;1.40;;;8.60;98.90;;;;;;4986517;28;20471;-85
2021/03/14 13:16:19;;;;;;;4.20;1.60;;;8.70;99.90;;;;;;4986355;28;20042;-85